JES3019 SASA-SABE
Flight info
| Callsign | JES3019 |
|---|---|
| Flight time | 1h 33m |
| Altitude | 35000 |
| Route | MUBOK2G PONPI UT681 PUBER UL550 ROS UT672 MULTA UW24 SNT SNT8Q |
| Aircraft | A320/M-SDE3FGHIRWY/LB1 |
Departure
| Time | 2026-04-30 21:12 |
|---|---|
| Airport | Martín Miguel de Güemes International Airport (SASA) |
Arrival
| Time | 2026-04-30 22:46 |
|---|---|
| Airport | Aeroparque Jorge Newbery (SABE) |
| Time | Latitude | Longitude | Altitude | Speed | Heading |
|---|---|---|---|---|---|
| 2026-04-30 21:03 | -24.84470 | -65.47899 | 4017 ft | 0 kts | 22° |
| 2026-04-30 21:05 | -24.84481 | -65.47904 | 4017 ft | 2 kts | 24° |
| 2026-04-30 21:06 | -24.84494 | -65.47910 | 4017 ft | 2 kts | 17° |
| 2026-04-30 21:06 | -24.84501 | -65.47912 | 4017 ft | 1 kts | 337° |
| 2026-04-30 21:06 | -24.84506 | -65.47909 | 4017 ft | 1 kts | 304° |
| 2026-04-30 21:06 | -24.84510 | -65.47903 | 4017 ft | 1 kts | 295° |
| 2026-04-30 21:07 | -24.84512 | -65.47897 | 4017 ft | 1 kts | 292° |
| 2026-04-30 21:07 | -24.84513 | -65.47894 | 4017 ft | 0 kts | 292° |
| 2026-04-30 21:09 | -24.84510 | -65.47903 | 4017 ft | 4 kts | 292° |
| 2026-04-30 21:09 | -24.84500 | -65.47946 | 4017 ft | 8 kts | 272° |
| 2026-04-30 21:10 | -24.84517 | -65.48019 | 4017 ft | 12 kts | 252° |
| 2026-04-30 21:10 | -24.84548 | -65.48121 | 4017 ft | 16 kts | 252° |
| 2026-04-30 21:10 | -24.84586 | -65.48253 | 4017 ft | 20 kts | 251° |
| 2026-04-30 21:10 | -24.84656 | -65.48373 | 4017 ft | 17 kts | 225° |
| 2026-04-30 21:11 | -24.84663 | -65.48392 | 4017 ft | 2 kts | 275° |
| 2026-04-30 21:11 | -24.84666 | -65.48426 | 4016 ft | 4 kts | 237° |
| 2026-04-30 21:11 | -24.84701 | -65.48434 | 4017 ft | 7 kts | 189° |
| 2026-04-30 21:11 | -24.84760 | -65.48446 | 4018 ft | 11 kts | 189° |
| 2026-04-30 21:12 | -24.85060 | -65.48511 | 4017 ft | 95 kts | 191° |
| 2026-04-30 21:12 | -24.86013 | -65.48716 | 4099 ft | 172 kts | 191° |
| 2026-04-30 21:12 | -24.87209 | -65.48957 | 5018 ft | 185 kts | 190° |
| 2026-04-30 21:12 | -24.88518 | -65.49243 | 6059 ft | 198 kts | 192° |
| 2026-04-30 21:13 | -24.89919 | -65.49566 | 6919 ft | 214 kts | 191° |
| 2026-04-30 21:13 | -24.91449 | -65.49912 | 7680 ft | 235 kts | 191° |
| 2026-04-30 21:13 | -24.93125 | -65.50284 | 8437 ft | 254 kts | 191° |
| 2026-04-30 21:13 | -24.94877 | -65.50665 | 9466 ft | 259 kts | 191° |
| 2026-04-30 21:14 | -24.96083 | -65.50907 | 10155 ft | 261 kts | 187° |
| 2026-04-30 21:14 | -24.97892 | -65.50932 | 11082 ft | 266 kts | 175° |
| 2026-04-30 21:14 | -24.99733 | -65.50524 | 11942 ft | 277 kts | 168° |
| 2026-04-30 21:14 | -25.01691 | -65.50017 | 12425 ft | 301 kts | 168° |
| 2026-04-30 21:15 | -25.03826 | -65.49478 | 12830 ft | 326 kts | 169° |
| 2026-04-30 21:15 | -25.06128 | -65.48904 | 13165 ft | 351 kts | 169° |
| 2026-04-30 21:15 | -25.08581 | -65.48293 | 13629 ft | 368 kts | 169° |
| 2026-04-30 21:15 | -25.11096 | -65.47664 | 14395 ft | 373 kts | 169° |
| 2026-04-30 21:16 | -25.13640 | -65.47028 | 15161 ft | 378 kts | 170° |
| 2026-04-30 21:16 | -25.16196 | -65.46389 | 15921 ft | 383 kts | 170° |
| 2026-04-30 21:16 | -25.18811 | -65.45737 | 16658 ft | 388 kts | 171° |
| 2026-04-30 21:16 | -25.21500 | -65.45067 | 17417 ft | 394 kts | 171° |
| 2026-04-30 21:17 | -25.24194 | -65.44395 | 18145 ft | 400 kts | 171° |
| 2026-04-30 21:17 | -25.26887 | -65.43723 | 18803 ft | 404 kts | 171° |
| 2026-04-30 21:17 | -25.29654 | -65.43033 | 19490 ft | 409 kts | 171° |
| 2026-04-30 21:17 | -25.32446 | -65.42336 | 20159 ft | 413 kts | 172° |
| 2026-04-30 21:18 | -25.35270 | -65.41631 | 20822 ft | 418 kts | 172° |
| 2026-04-30 21:18 | -25.38122 | -65.40918 | 21508 ft | 423 kts | 172° |
| 2026-04-30 21:18 | -25.41017 | -65.40194 | 22178 ft | 428 kts | 172° |
| 2026-04-30 21:18 | -25.43943 | -65.39462 | 22852 ft | 433 kts | 172° |
| 2026-04-30 21:19 | -25.46898 | -65.38722 | 23511 ft | 438 kts | 172° |
| 2026-04-30 21:19 | -25.49886 | -65.37975 | 24085 ft | 443 kts | 172° |
| 2026-04-30 21:19 | -25.52905 | -65.37219 | 24647 ft | 447 kts | 172° |
| 2026-04-30 21:19 | -25.55925 | -65.36463 | 25193 ft | 452 kts | 172° |
| 2026-04-30 21:20 | -25.59010 | -65.35691 | 25770 ft | 456 kts | 171° |
| 2026-04-30 21:20 | -25.62115 | -65.34913 | 26350 ft | 460 kts | 171° |
| 2026-04-30 21:20 | -25.65256 | -65.34127 | 26836 ft | 466 kts | 171° |
| 2026-04-30 21:20 | -25.68446 | -65.33326 | 27331 ft | 470 kts | 171° |
| 2026-04-30 21:21 | -25.71652 | -65.32521 | 27841 ft | 475 kts | 171° |
| 2026-04-30 21:21 | -25.74900 | -65.31699 | 28324 ft | 481 kts | 170° |
| 2026-04-30 21:21 | -25.81367 | -65.29410 | 29280 ft | 492 kts | 165° |
| 2026-04-30 21:22 | -25.84629 | -65.28210 | 29724 ft | 496 kts | 165° |
| 2026-04-30 21:22 | -25.94583 | -65.24549 | 30879 ft | 507 kts | 165° |
| 2026-04-30 21:23 | -25.97894 | -65.23329 | 31324 ft | 509 kts | 165° |
| 2026-04-30 21:23 | -26.01262 | -65.22086 | 31844 ft | 509 kts | 166° |
| 2026-04-30 21:23 | -26.07993 | -65.19600 | 32834 ft | 510 kts | 166° |
| 2026-04-30 21:24 | -26.11355 | -65.18358 | 33347 ft | 510 kts | 166° |
| 2026-04-30 21:24 | -26.14724 | -65.17113 | 33838 ft | 510 kts | 166° |
| 2026-04-30 21:24 | -26.18090 | -65.15867 | 34274 ft | 510 kts | 166° |
| 2026-04-30 21:24 | -26.21457 | -65.14621 | 34672 ft | 509 kts | 167° |
| 2026-04-30 21:25 | -26.28169 | -65.12135 | 34869 ft | 507 kts | 167° |
| 2026-04-30 21:25 | -26.31522 | -65.10892 | 34867 ft | 507 kts | 167° |
| 2026-04-30 21:26 | -26.41522 | -65.07181 | 34854 ft | 507 kts | 167° |
| 2026-04-30 21:27 | -26.51527 | -65.03460 | 34840 ft | 506 kts | 167° |
| 2026-04-30 21:27 | -26.58212 | -65.00969 | 34832 ft | 506 kts | 166° |
| 2026-04-30 21:28 | -26.68025 | -64.97309 | 34823 ft | 505 kts | 166° |
| 2026-04-30 21:29 | -26.78034 | -64.93568 | 34817 ft | 505 kts | 166° |
| 2026-04-30 21:30 | -26.94708 | -64.87324 | 34814 ft | 505 kts | 166° |
| 2026-04-30 21:31 | -27.11363 | -64.81068 | 34806 ft | 506 kts | 166° |
| 2026-04-30 21:32 | -27.21385 | -64.77294 | 34810 ft | 507 kts | 166° |
| 2026-04-30 21:32 | -27.28080 | -64.74769 | 34816 ft | 507 kts | 166° |
| 2026-04-30 21:33 | -27.38065 | -64.70997 | 34819 ft | 507 kts | 166° |
| 2026-04-30 21:34 | -27.44767 | -64.68461 | 34821 ft | 507 kts | 166° |
| 2026-04-30 21:34 | -27.54686 | -64.64191 | 34819 ft | 514 kts | 155° |
| 2026-04-30 21:35 | -27.60852 | -64.60084 | 34815 ft | 515 kts | 153° |
| 2026-04-30 21:35 | -27.67020 | -64.55952 | 34822 ft | 515 kts | 153° |
| 2026-04-30 21:36 | -27.73146 | -64.51839 | 34826 ft | 515 kts | 153° |
| 2026-04-30 21:37 | -27.85469 | -64.43536 | 34830 ft | 516 kts | 153° |
| 2026-04-30 21:37 | -27.91636 | -64.39371 | 34831 ft | 515 kts | 153° |
| 2026-04-30 21:38 | -27.97806 | -64.35199 | 34829 ft | 515 kts | 153° |
| 2026-04-30 21:38 | -28.03921 | -64.31059 | 34817 ft | 515 kts | 153° |
| 2026-04-30 21:39 | -28.10082 | -64.26882 | 34816 ft | 515 kts | 153° |
| 2026-04-30 21:39 | -28.16231 | -64.22708 | 34812 ft | 515 kts | 153° |
| 2026-04-30 21:40 | -28.22385 | -64.18524 | 34818 ft | 515 kts | 152° |
| 2026-04-30 21:40 | -28.28533 | -64.14340 | 34822 ft | 515 kts | 152° |
| 2026-04-30 21:41 | -28.34648 | -64.10173 | 34820 ft | 514 kts | 152° |
| 2026-04-30 21:41 | -28.40784 | -64.05987 | 34821 ft | 514 kts | 152° |
| 2026-04-30 21:42 | -28.46915 | -64.01799 | 34822 ft | 514 kts | 152° |
| 2026-04-30 21:42 | -28.53047 | -63.97604 | 34824 ft | 513 kts | 152° |
| 2026-04-30 21:43 | -28.59137 | -63.93432 | 34825 ft | 513 kts | 152° |
| 2026-04-30 21:43 | -28.65245 | -63.89241 | 34825 ft | 513 kts | 152° |
| 2026-04-30 21:44 | -28.71353 | -63.85046 | 34824 ft | 512 kts | 152° |
| 2026-04-30 21:44 | -28.77453 | -63.80850 | 34826 ft | 512 kts | 152° |
| 2026-04-30 21:45 | -28.83552 | -63.76641 | 34832 ft | 511 kts | 152° |
| 2026-04-30 21:45 | -28.89624 | -63.72414 | 34832 ft | 511 kts | 152° |
| 2026-04-30 21:46 | -28.95696 | -63.68182 | 34833 ft | 510 kts | 152° |
| 2026-04-30 21:46 | -29.01719 | -63.63982 | 34836 ft | 510 kts | 152° |
| 2026-04-30 21:47 | -29.07772 | -63.59756 | 34836 ft | 510 kts | 152° |
| 2026-04-30 21:47 | -29.13821 | -63.55527 | 34839 ft | 509 kts | 152° |
| 2026-04-30 21:48 | -29.19864 | -63.51295 | 34838 ft | 509 kts | 152° |
| 2026-04-30 21:48 | -29.25902 | -63.47061 | 34841 ft | 509 kts | 152° |
| 2026-04-30 21:49 | -29.31934 | -63.42825 | 34848 ft | 508 kts | 152° |
| 2026-04-30 21:49 | -29.37960 | -63.38588 | 34848 ft | 508 kts | 152° |
| 2026-04-30 21:50 | -29.43984 | -63.34346 | 34847 ft | 508 kts | 152° |
| 2026-04-30 21:50 | -29.49997 | -63.30096 | 34847 ft | 508 kts | 152° |
| 2026-04-30 21:51 | -29.55967 | -63.25858 | 34852 ft | 507 kts | 152° |
| 2026-04-30 21:51 | -29.61976 | -63.21587 | 34850 ft | 507 kts | 152° |
| 2026-04-30 21:52 | -29.67979 | -63.17317 | 34847 ft | 507 kts | 152° |
| 2026-04-30 21:52 | -29.73984 | -63.13039 | 34851 ft | 507 kts | 152° |
| 2026-04-30 21:53 | -29.79984 | -63.08758 | 34855 ft | 507 kts | 152° |
| 2026-04-30 21:53 | -29.85946 | -63.04498 | 34857 ft | 507 kts | 152° |
| 2026-04-30 21:54 | -29.91938 | -63.00211 | 34860 ft | 506 kts | 152° |
| 2026-04-30 21:54 | -29.97922 | -62.95923 | 34860 ft | 506 kts | 152° |
| 2026-04-30 21:55 | -30.03902 | -62.91632 | 34860 ft | 506 kts | 152° |
| 2026-04-30 21:55 | -30.09882 | -62.87335 | 34861 ft | 506 kts | 152° |
| 2026-04-30 21:56 | -30.15854 | -62.83038 | 34858 ft | 506 kts | 152° |
| 2026-04-30 21:56 | -30.21831 | -62.78730 | 34860 ft | 506 kts | 152° |
| 2026-04-30 21:57 | -30.27802 | -62.74421 | 34861 ft | 506 kts | 152° |
| 2026-04-30 21:57 | -30.33774 | -62.70105 | 34861 ft | 506 kts | 152° |
| 2026-04-30 21:58 | -30.39700 | -62.65817 | 34858 ft | 506 kts | 152° |
| 2026-04-30 21:58 | -30.45669 | -62.61493 | 34863 ft | 506 kts | 152° |
| 2026-04-30 21:59 | -30.51647 | -62.57157 | 34862 ft | 506 kts | 152° |
| 2026-04-30 22:00 | -30.60575 | -62.50668 | 34866 ft | 507 kts | 152° |
| 2026-04-30 22:00 | -30.69543 | -62.44136 | 34869 ft | 507 kts | 152° |
| 2026-04-30 22:01 | -30.75520 | -62.39774 | 34871 ft | 507 kts | 152° |
| 2026-04-30 22:01 | -30.81494 | -62.35418 | 34880 ft | 507 kts | 152° |
| 2026-04-30 22:02 | -30.87470 | -62.31083 | 34877 ft | 506 kts | 152° |
| 2026-04-30 22:02 | -30.92449 | -62.27466 | 34882 ft | 507 kts | 152° |
| 2026-04-30 22:03 | -30.99402 | -62.22402 | 34874 ft | 507 kts | 152° |
| 2026-04-30 22:03 | -31.04411 | -62.18749 | 34881 ft | 506 kts | 152° |
| 2026-04-30 22:04 | -31.10343 | -62.14420 | 34871 ft | 506 kts | 152° |
| 2026-04-30 22:05 | -31.19319 | -62.07858 | 34876 ft | 507 kts | 152° |
| 2026-04-30 22:05 | -31.25296 | -62.03444 | 34880 ft | 507 kts | 151° |
| 2026-04-30 22:06 | -31.31251 | -61.99010 | 34880 ft | 507 kts | 151° |
| 2026-04-30 22:06 | -31.40133 | -61.92396 | 34874 ft | 506 kts | 152° |
| 2026-04-30 22:07 | -31.46072 | -61.87969 | 34867 ft | 504 kts | 152° |
| 2026-04-30 22:07 | -31.51978 | -61.83559 | 34865 ft | 503 kts | 152° |
| 2026-04-30 22:08 | -31.57886 | -61.79142 | 34863 ft | 503 kts | 152° |
| 2026-04-30 22:08 | -31.63780 | -61.74727 | 34861 ft | 502 kts | 152° |
| 2026-04-30 22:09 | -31.69669 | -61.70310 | 34864 ft | 502 kts | 152° |
| 2026-04-30 22:09 | -31.75518 | -61.65916 | 34870 ft | 502 kts | 152° |
| 2026-04-30 22:10 | -31.81408 | -61.61485 | 34871 ft | 502 kts | 152° |
| 2026-04-30 22:10 | -31.87298 | -61.57046 | 34879 ft | 502 kts | 152° |
| 2026-04-30 22:11 | -31.96118 | -61.50387 | 34883 ft | 502 kts | 152° |
| 2026-04-30 22:12 | -32.01992 | -61.45944 | 34887 ft | 502 kts | 152° |
| 2026-04-30 22:12 | -32.07876 | -61.41487 | 34890 ft | 502 kts | 152° |
| 2026-04-30 22:13 | -32.13753 | -61.37028 | 34892 ft | 501 kts | 152° |
| 2026-04-30 22:13 | -32.19622 | -61.32568 | 34900 ft | 501 kts | 152° |
| 2026-04-30 22:14 | -32.25259 | -61.27668 | 34897 ft | 504 kts | 147° |
| 2026-04-30 22:14 | -32.30777 | -61.22653 | 34898 ft | 503 kts | 147° |
| 2026-04-30 22:15 | -32.36328 | -61.17613 | 34895 ft | 503 kts | 147° |
| 2026-04-30 22:15 | -32.41871 | -61.12578 | 34901 ft | 502 kts | 147° |
| 2026-04-30 22:16 | -32.47406 | -61.07541 | 34890 ft | 501 kts | 147° |
| 2026-04-30 22:17 | -32.58453 | -60.97464 | 34901 ft | 500 kts | 147° |
| 2026-04-30 22:17 | -32.66656 | -60.89960 | 34908 ft | 499 kts | 147° |
| 2026-04-30 22:18 | -32.74869 | -60.82430 | 34911 ft | 498 kts | 147° |
| 2026-04-30 22:19 | -32.83096 | -60.74868 | 34913 ft | 497 kts | 147° |
| 2026-04-30 22:20 | -32.91301 | -60.67309 | 34916 ft | 496 kts | 147° |
| 2026-04-30 22:20 | -32.99483 | -60.59751 | 34916 ft | 495 kts | 148° |
| 2026-04-30 22:21 | -33.04886 | -60.54752 | 34913 ft | 494 kts | 148° |
| 2026-04-30 22:21 | -33.10325 | -60.49710 | 34916 ft | 494 kts | 148° |
| 2026-04-30 22:22 | -33.15741 | -60.44684 | 34916 ft | 493 kts | 148° |
| 2026-04-30 22:22 | -33.21149 | -60.39654 | 34920 ft | 492 kts | 148° |
| 2026-04-30 22:23 | -33.26542 | -60.34632 | 34923 ft | 491 kts | 148° |
| 2026-04-30 22:23 | -33.31920 | -60.29615 | 34928 ft | 490 kts | 148° |
| 2026-04-30 22:24 | -33.37247 | -60.24638 | 34924 ft | 489 kts | 148° |
| 2026-04-30 22:24 | -33.42605 | -60.19623 | 34923 ft | 488 kts | 148° |
| 2026-04-30 22:25 | -33.47946 | -60.14617 | 34919 ft | 487 kts | 148° |
| 2026-04-30 22:25 | -33.53272 | -60.09615 | 34875 ft | 481 kts | 148° |
| 2026-04-30 22:26 | -33.58515 | -60.04684 | 33352 ft | 480 kts | 148° |
| 2026-04-30 22:26 | -33.61126 | -60.02229 | 32463 ft | 481 kts | 148° |
| 2026-04-30 22:26 | -33.63773 | -59.99735 | 31549 ft | 481 kts | 148° |
| 2026-04-30 22:27 | -33.66403 | -59.97257 | 30617 ft | 482 kts | 148° |
| 2026-04-30 22:27 | -33.69051 | -59.94758 | 29741 ft | 481 kts | 148° |
| 2026-04-30 22:27 | -33.74221 | -59.89865 | 28213 ft | 471 kts | 148° |
| 2026-04-30 22:28 | -33.79319 | -59.85040 | 26695 ft | 462 kts | 148° |
| 2026-04-30 22:28 | -33.81834 | -59.82657 | 25970 ft | 458 kts | 148° |
| 2026-04-30 22:29 | -33.89254 | -59.75621 | 23894 ft | 447 kts | 147° |
| 2026-04-30 22:29 | -33.91686 | -59.73311 | 23182 ft | 444 kts | 147° |
| 2026-04-30 22:30 | -34.01182 | -59.64274 | 20371 ft | 426 kts | 147° |
| 2026-04-30 22:31 | -34.08063 | -59.57710 | 18420 ft | 415 kts | 146° |
| 2026-04-30 22:32 | -34.14742 | -59.51323 | 16484 ft | 400 kts | 146° |
| 2026-04-30 22:32 | -34.19061 | -59.47188 | 15266 ft | 391 kts | 146° |
| 2026-04-30 22:33 | -34.23028 | -59.39130 | 13553 ft | 389 kts | 101° |
| 2026-04-30 22:33 | -34.23984 | -59.32771 | 12352 ft | 379 kts | 101° |
| 2026-04-30 22:34 | -34.25368 | -59.23576 | 10656 ft | 365 kts | 100° |
| 2026-04-30 22:35 | -34.26259 | -59.17684 | 10035 ft | 342 kts | 99° |
| 2026-04-30 22:36 | -34.27844 | -59.07158 | 8858 ft | 307 kts | 99° |
| 2026-04-30 22:36 | -34.28224 | -59.04622 | 8433 ft | 304 kts | 99° |
| 2026-04-30 22:37 | -34.29339 | -58.97171 | 7197 ft | 297 kts | 99° |
| 2026-04-30 22:37 | -34.29704 | -58.94721 | 6782 ft | 295 kts | 99° |
| 2026-04-30 22:37 | -34.30422 | -58.89904 | 5987 ft | 290 kts | 99° |
| 2026-04-30 22:38 | -34.31130 | -58.85145 | 5211 ft | 284 kts | 99° |
| 2026-04-30 22:38 | -34.31800 | -58.80625 | 4965 ft | 258 kts | 99° |
| 2026-04-30 22:39 | -34.32114 | -58.78501 | 4970 ft | 268 kts | 99° |
| 2026-04-30 22:39 | -34.35228 | -58.72725 | 4958 ft | 281 kts | 136° |
| 2026-04-30 22:40 | -34.39300 | -58.67725 | 3993 ft | 275 kts | 135° |
| 2026-04-30 22:41 | -34.43127 | -58.62952 | 3405 ft | 244 kts | 135° |
| 2026-04-30 22:41 | -34.45339 | -58.60186 | 3167 ft | 214 kts | 134° |
| 2026-04-30 22:42 | -34.48632 | -58.54655 | 2414 ft | 181 kts | 125° |
| 2026-04-30 22:43 | -34.49889 | -58.52401 | 1946 ft | 146 kts | 126° |
| 2026-04-30 22:43 | -34.51023 | -58.50366 | 1558 ft | 144 kts | 126° |
| 2026-04-30 22:44 | -34.52130 | -58.48380 | 1185 ft | 141 kts | 126° |
| 2026-04-30 22:45 | -34.54268 | -58.44542 | 454 ft | 136 kts | 123° |
| 2026-04-30 22:45 | -34.55302 | -58.42689 | 97 ft | 141 kts | 122° |
| 2026-04-30 22:46 | -34.56109 | -58.41242 | 27 ft | 37 kts | 125° |
| 2026-04-30 22:47 | -34.56104 | -58.41000 | 27 ft | 6 kts | 308° |
| 2026-04-30 22:47 | -34.56044 | -58.41098 | 27 ft | 13 kts | 309° |
| 2026-04-30 22:48 | -34.55982 | -58.41202 | 27 ft | 12 kts | 307° |
| 2026-04-30 22:49 | -34.55808 | -58.41331 | 27 ft | 2 kts | 305° |
| 2026-04-30 22:49 | -34.55770 | -58.41325 | 27 ft | 2 kts | 33° |
| 2026-04-30 22:50 | -34.55763 | -58.41320 | 27 ft | 0 kts | 34° |